createdAt,value
2019-04-30T00:00:22.065Z,102580.34
2019-04-30T00:05:25.144Z,102580.86
2019-04-30T00:10:35.411Z,102579.02
2019-04-30T00:15:30.727Z,102572.63
2019-04-30T00:20:37.049Z,102577.90
2019-04-30T00:25:35.711Z,102581.33
2019-04-30T00:30:39.258Z,102579.22
2019-04-30T00:35:40.759Z,102575.13
2019-04-30T00:40:42.290Z,102572.02
2019-04-30T00:45:47.345Z,102572.50
2019-04-30T00:50:47.447Z,102558.75
2019-04-30T00:55:49.277Z,102567.96
2019-04-30T01:00:50.858Z,102563.10
2019-04-30T01:05:52.429Z,102553.41
2019-04-30T01:10:55.631Z,102550.67
2019-04-30T01:15:58.754Z,102547.31
2019-04-30T01:21:02.931Z,102549.87
2019-04-30T01:26:04.056Z,102548.16
2019-04-30T01:31:06.063Z,102536.79
2019-04-30T01:36:09.526Z,102543.08
2019-04-30T01:41:11.063Z,102541.76
2019-04-30T01:46:13.963Z,102533.68
2019-04-30T01:51:20.335Z,102533.09
2019-04-30T01:56:19.331Z,102532.17
2019-04-30T02:01:20.896Z,102529.03
2019-04-30T02:06:22.475Z,102530.56
2019-04-30T02:11:24.379Z,102528.77
2019-04-30T02:16:25.981Z,102526.53
2019-04-30T02:21:27.561Z,102523.72
2019-04-30T02:26:29.535Z,102524.30
2019-04-30T02:31:31.129Z,102519.96
2019-04-30T02:36:32.809Z,102513.45
2019-04-30T02:41:35.114Z,102519.56
2019-04-30T02:46:36.397Z,102519.16
2019-04-30T02:51:39.994Z,102518.83
2019-04-30T02:56:40.996Z,102519.05
2019-04-30T03:01:42.320Z,102513.89
2019-04-30T03:06:44.110Z,102515.07
2019-04-30T03:11:45.464Z,102509.30
2019-04-30T03:16:52.633Z,102507.58
2019-04-30T03:21:50.501Z,102508.81
2019-04-30T03:26:51.846Z,102508.81
2019-04-30T03:31:53.231Z,102506.00
2019-04-30T03:36:54.693Z,102505.81
2019-04-30T03:41:56.045Z,102500.95
2019-04-30T03:46:59.335Z,102489.25
2019-04-30T03:52:00.951Z,102498.00
2019-04-30T03:57:02.238Z,102505.48
2019-04-30T04:02:03.715Z,102508.84
2019-04-30T04:07:04.951Z,102504.09
2019-04-30T04:12:06.465Z,102501.55
2019-04-30T04:17:09.851Z,102508.14
2019-04-30T04:22:12.266Z,102518.86
2019-04-30T04:27:13.957Z,102513.38
2019-04-30T04:32:15.225Z,102513.38
2019-04-30T04:37:16.461Z,102513.61
2019-04-30T04:42:19.388Z,102518.32
2019-04-30T04:47:21.276Z,102523.58
2019-04-30T04:52:23.019Z,102524.63
2019-04-30T04:57:24.266Z,102520.52
2019-04-30T05:02:25.637Z,102528.33
2019-04-30T05:07:28.698Z,102523.50
2019-04-30T05:12:30.570Z,102528.41
2019-04-30T05:17:32.297Z,102518.48
2019-04-30T05:22:33.767Z,102523.41
2019-04-30T05:27:35.184Z,102524.41
2019-04-30T05:32:36.417Z,102527.95
2019-04-30T05:37:38.454Z,102522.75
2019-04-30T05:42:39.999Z,102524.63
2019-04-30T05:47:41.466Z,102523.81
2019-04-30T05:52:42.844Z,102522.77
2019-04-30T05:57:53.870Z,102530.16
2019-04-30T06:02:49.526Z,102527.48
2019-04-30T06:07:52.044Z,102533.30
2019-04-30T06:12:53.972Z,102527.57
2019-04-30T06:18:00.288Z,102527.19
2019-04-30T06:22:59.652Z,102525.23
2019-04-30T06:28:01.143Z,102523.61
2019-04-30T06:33:02.950Z,102525.56
2019-04-30T06:38:04.297Z,102532.16
2019-04-30T06:43:05.862Z,102533.17
2019-04-30T06:48:08.756Z,102533.11
2019-04-30T06:53:10.244Z,102527.33
2019-04-30T06:58:15.274Z,102532.44
2019-04-30T07:03:15.183Z,102525.77
2019-04-30T07:08:16.441Z,102525.57
2019-04-30T07:13:18.788Z,102526.84
2019-04-30T07:18:20.719Z,102529.93
2019-04-30T07:23:22.191Z,102533.83
2019-04-30T07:28:42.704Z,102533.72
2019-04-30T07:33:29.427Z,102527.64
2019-04-30T07:38:35.788Z,102533.16
2019-04-30T07:43:34.126Z,102536.48
2019-04-30T07:48:35.414Z,102543.89
2019-04-30T07:53:36.887Z,102544.56
2019-04-30T07:58:39.113Z,102553.13
2019-04-30T08:03:40.940Z,102548.09
2019-04-30T08:08:42.761Z,102551.47
2019-04-30T08:13:44.755Z,102552.95
2019-04-30T08:18:46.429Z,102561.61
2019-04-30T08:23:48.975Z,102559.64
2019-04-30T08:28:50.696Z,102565.50
2019-04-30T08:33:52.155Z,102570.61
2019-04-30T08:38:53.573Z,102573.42
2019-04-30T08:43:54.836Z,102575.37
2019-04-30T08:48:56.242Z,102579.02
2019-04-30T08:53:58.707Z,102576.97
2019-04-30T08:59:00.333Z,102580.83
2019-04-30T09:04:02.307Z,102581.83
2019-04-30T09:09:05.594Z,102579.63
2019-04-30T09:14:08.565Z,102583.14
2019-04-30T09:19:10.418Z,102589.33
2019-04-30T09:24:11.659Z,102582.80
2019-04-30T09:29:12.960Z,102585.92
2019-04-30T09:34:18.028Z,102585.55
2019-04-30T09:39:19.889Z,102579.64
2019-04-30T09:44:21.858Z,102586.22
2019-04-30T09:49:23.533Z,102585.08
2019-04-30T09:54:25.246Z,102589.42
2019-04-30T09:59:28.965Z,102584.73
2019-04-30T10:04:31.233Z,102583.19
2019-04-30T10:09:33.195Z,102585.07
2019-04-30T10:14:34.439Z,102581.11
2019-04-30T10:19:35.862Z,102574.73
2019-04-30T10:24:39.206Z,102565.70
2019-04-30T10:29:41.231Z,102558.94
2019-04-30T10:34:42.636Z,102561.91
2019-04-30T10:39:44.534Z,102555.52
2019-04-30T10:44:45.763Z,102551.81
2019-04-30T10:49:48.675Z,102550.39
2019-04-30T10:54:50.110Z,102550.18
2019-04-30T10:59:51.856Z,102545.91
2019-04-30T11:04:53.372Z,102538.58
2019-04-30T11:09:54.673Z,102537.44
2019-04-30T11:14:55.897Z,102534.13
2019-04-30T11:19:59.195Z,102529.92
2019-04-30T11:25:02.760Z,102521.36
2019-04-30T11:30:04.759Z,102519.85
2019-04-30T11:35:07.462Z,102516.17
2019-04-30T11:40:10.183Z,102519.98
2019-04-30T11:45:19.452Z,102522.99
2019-04-30T11:50:20.866Z,102521.56
2019-04-30T11:55:22.129Z,102512.80
2019-04-30T12:00:23.533Z,102513.89
2019-04-30T12:05:25.008Z,102510.03
2019-04-30T12:10:26.504Z,102502.31
2019-04-30T12:15:29.112Z,102497.45
2019-04-30T12:20:33.590Z,102495.09
2019-04-30T12:25:34.711Z,102493.50
2019-04-30T12:30:36.045Z,102488.52
2019-04-30T12:35:37.312Z,102491.14
2019-04-30T12:40:39.006Z,102485.36
2019-04-30T12:45:40.293Z,102482.18
2019-04-30T12:50:41.903Z,102481.50
2019-04-30T12:55:43.385Z,102477.61
2019-04-30T13:00:44.760Z,102472.31
2019-04-30T13:05:46.477Z,102474.59
2019-04-30T13:10:48.267Z,102468.64
2019-04-30T13:15:49.938Z,102470.46
2019-04-30T13:20:52.286Z,102465.46
2019-04-30T13:25:53.861Z,102459.59
2019-04-30T13:30:55.654Z,102447.23
2019-04-30T13:35:58.429Z,102455.62
2019-04-30T13:41:00.530Z,102454.80
2019-04-30T13:46:02.001Z,102440.77
2019-04-30T13:51:03.242Z,102440.09
2019-04-30T13:56:04.639Z,102443.03
2019-04-30T14:01:06.091Z,102427.99
2019-04-30T14:06:09.118Z,102431.00
2019-04-30T14:11:10.464Z,102428.49
2019-04-30T14:16:11.893Z,102425.19
2019-04-30T14:21:13.381Z,102422.95
2019-04-30T14:26:15.009Z,102420.72
2019-04-30T14:31:16.285Z,102417.67
2019-04-30T14:36:19.351Z,102412.45
2019-04-30T14:41:21.351Z,102412.03
2019-04-30T14:46:23.489Z,102404.27
2019-04-30T14:51:25.219Z,102402.09
2019-04-30T14:56:26.450Z,102411.14
2019-04-30T15:01:29.297Z,102405.14
2019-04-30T15:06:31.241Z,102398.94
2019-04-30T15:11:32.714Z,102392.33
2019-04-30T15:16:34.235Z,102393.39
2019-04-30T15:21:36.109Z,102387.69
2019-04-30T15:26:39.335Z,102395.69
2019-04-30T15:31:42.625Z,102382.69
2019-04-30T15:36:43.977Z,102381.85
2019-04-30T15:41:45.781Z,102387.02
2019-04-30T15:46:47.474Z,102384.34
2019-04-30T15:51:48.713Z,102376.56
2019-04-30T15:56:50.140Z,102372.03
2019-04-30T16:01:51.722Z,102371.81
2019-04-30T16:06:53.195Z,102365.27
2019-04-30T16:11:54.557Z,102366.11
2019-04-30T16:16:56.360Z,102356.80
2019-04-30T16:21:57.596Z,102359.52
2019-04-30T16:26:59.496Z,102355.89
2019-04-30T16:32:00.966Z,102347.17
2019-04-30T16:37:02.321Z,102350.79
2019-04-30T16:42:03.710Z,102354.89
2019-04-30T16:47:13.728Z,102347.26
2019-04-30T16:52:09.188Z,102342.17
2019-04-30T16:57:10.714Z,102341.53
2019-04-30T17:02:12.231Z,102336.86
2019-04-30T17:07:13.645Z,102338.69
2019-04-30T17:12:14.992Z,102342.67
2019-04-30T17:17:16.695Z,102331.16
2019-04-30T17:22:18.084Z,102332.35
2019-04-30T17:27:22.121Z,102328.30
2019-04-30T17:32:23.316Z,102331.47
2019-04-30T17:37:24.564Z,102325.23
2019-04-30T17:47:34.421Z,102321.20
2019-04-30T17:52:37.230Z,102317.00
2019-04-30T17:57:40.312Z,102320.33
2019-04-30T18:02:41.824Z,102327.10
2019-04-30T18:07:43.297Z,102319.69
2019-04-30T18:12:44.708Z,102314.52
2019-04-30T18:17:46.116Z,102316.08
2019-04-30T18:22:48.896Z,102310.58
2019-04-30T18:27:50.401Z,102319.08
2019-04-30T18:32:52.528Z,102311.64
2019-04-30T18:37:54.026Z,102310.59
2019-04-30T18:42:55.849Z,102310.02
2019-04-30T18:47:59.451Z,102313.73
2019-04-30T18:53:01.044Z,102313.00
2019-04-30T18:58:02.887Z,102317.50
2019-04-30T19:03:04.186Z,102316.38
2019-04-30T19:08:05.566Z,102315.78
2019-04-30T19:13:08.805Z,102316.02
2019-04-30T19:18:10.220Z,102320.14
2019-04-30T19:23:12.179Z,102316.71
2019-04-30T19:28:14.580Z,102316.19
2019-04-30T19:33:16.297Z,102319.56
2019-04-30T19:38:17.774Z,102324.84
2019-04-30T19:43:19.379Z,102322.95
2019-04-30T19:48:21.047Z,102326.22
2019-04-30T19:53:22.432Z,102329.02
2019-04-30T19:58:29.399Z,102323.42
2019-04-30T20:03:29.184Z,102318.31
2019-04-30T20:08:31.366Z,102315.34
2019-04-30T20:13:37.074Z,102319.40
2019-04-30T20:18:36.021Z,102315.52
2019-04-30T20:23:37.378Z,102314.13
2019-04-30T20:28:42.270Z,102311.16
2019-04-30T20:33:42.045Z,102312.23
2019-04-30T20:38:43.794Z,102312.14
2019-04-30T20:43:45.039Z,102302.27
2019-04-30T20:48:46.519Z,102297.48
2019-04-30T20:53:49.160Z,102296.09
2019-04-30T20:58:57.813Z,102292.15
2019-04-30T21:03:53.913Z,102294.61
2019-04-30T21:08:55.461Z,102282.93
2019-04-30T21:13:56.709Z,102281.67
2019-04-30T21:18:58.312Z,102281.33
2019-04-30T21:23:59.601Z,102279.27
2019-04-30T21:29:11.086Z,102272.52
2019-04-30T21:34:04.586Z,102271.54
2019-04-30T21:39:06.052Z,102264.79
2019-04-30T21:44:07.528Z,102264.55
2019-04-30T21:49:09.011Z,102255.91
2019-04-30T21:54:10.380Z,102252.95
2019-04-30T21:59:23.765Z,102259.35
2019-04-30T22:04:14.931Z,102256.70
2019-04-30T22:09:16.186Z,102256.64
2019-04-30T22:14:17.912Z,102256.30
2019-04-30T22:19:19.181Z,102252.59
2019-04-30T22:24:20.887Z,102254.50
2019-04-30T22:29:22.253Z,102249.84
2019-04-30T22:34:23.825Z,102240.45
2019-04-30T22:39:25.076Z,102243.67
2019-04-30T22:44:26.652Z,102238.24
2019-04-30T22:49:28.240Z,102241.05
2019-04-30T22:54:29.786Z,102242.09
2019-04-30T22:59:31.244Z,102244.81
2019-04-30T23:04:32.841Z,102238.62
2019-04-30T23:09:34.092Z,102238.28
2019-04-30T23:14:35.358Z,102237.91
2019-04-30T23:19:36.715Z,102228.64
2019-04-30T23:24:37.980Z,102233.80
2019-04-30T23:29:39.818Z,102226.23
2019-04-30T23:34:41.136Z,102225.45
2019-04-30T23:39:42.393Z,102215.02
2019-04-30T23:44:43.938Z,102220.03
2019-04-30T23:49:45.176Z,102210.00
2019-04-30T23:54:46.705Z,102209.34
2019-04-30T23:59:47.932Z,102196.68
